Annandale, New York
Current Conditions -  °F | °C
As of 8:53 AM on Monday 26 Jan 2015 (Local Time) from KPOU Reporting Station
Overcast Overcast  
Wind Chill:   Ceiling: 5500
Heat Index: 16°   Visibility: 10mi
Dew Point:   Wind: 12mph
Humidity: 57%   Direction: 10°N
Pressure: 30.05"   Gusts: NA
Location:  42.0124°N, 73.8998°W
Report Text: KPOU 261353Z 01010KT 10SM OVC055 M09/M16 A3005 RMK AO2 SLP176 T10891161
Loading
Personal Weather Stations






























Interactive Weather Map New forecast layout! Learn more

10-Day Weather Forecast

Advertisements
Track Severe Weather on mobile